Аэропорт: Ужгород. Ужгород

ICAO: UKLU

METAR:
2019-09-16 01:30:00
UKLU 160130Z 10002MPS 9999 NSC 12/07 Q1020 NOSIG
METAR:
Информация по данной станции не доступна